createdAt,value
2018-05-18T00:00:09.596Z,99.90
2018-05-18T00:02:39.975Z,99.90
2018-05-18T00:05:09.614Z,99.90
2018-05-18T00:07:39.355Z,99.90
2018-05-18T00:10:10.626Z,99.90
2018-05-18T00:12:41.017Z,99.90
2018-05-18T00:15:10.749Z,99.90
2018-05-18T00:17:42.607Z,99.90
2018-05-18T00:20:26.866Z,99.90
2018-05-18T00:22:57.253Z,99.90
2018-05-18T00:25:27.105Z,99.90
2018-05-18T00:27:57.605Z,99.90
2018-05-18T00:30:27.938Z,99.90
2018-05-18T00:32:57.543Z,99.90
2018-05-18T00:35:28.188Z,99.90
2018-05-18T00:38:01.386Z,99.90
2018-05-18T00:40:31.910Z,99.90
2018-05-18T00:43:02.156Z,99.90
2018-05-18T00:45:33.495Z,99.90
2018-05-18T00:48:03.926Z,99.90
2018-05-18T00:50:35.140Z,99.90
2018-05-18T00:53:04.925Z,99.90
2018-05-18T00:55:42.986Z,99.90
2018-05-18T00:58:12.796Z,99.90
2018-05-18T01:03:45.255Z,99.90
2018-05-18T01:06:15.120Z,99.90
2018-05-18T01:08:45.527Z,99.90
2018-05-18T01:11:15.319Z,99.90
2018-05-18T01:13:44.831Z,99.90
2018-05-18T01:16:15.903Z,99.90
2018-05-18T01:18:45.701Z,99.90
2018-05-18T01:21:16.649Z,99.90
2018-05-18T01:23:46.351Z,99.90
2018-05-18T01:26:16.420Z,99.90
2018-05-18T01:28:46.185Z,99.90
2018-05-18T01:31:15.880Z,99.90
2018-05-18T01:33:45.705Z,99.90
2018-05-18T01:36:15.357Z,99.90
2018-05-18T01:38:46.257Z,99.90
2018-05-18T01:41:16.722Z,99.90
2018-05-18T01:43:47.094Z,99.90
2018-05-18T01:46:16.810Z,99.90
2018-05-18T01:48:47.149Z,99.90
2018-05-18T01:51:16.741Z,99.90
2018-05-18T01:53:46.371Z,99.90
2018-05-18T01:56:16.078Z,99.90
2018-05-18T01:58:45.789Z,99.90
2018-05-18T02:01:15.479Z,99.90
2018-05-18T02:03:45.313Z,99.90
2018-05-18T02:06:14.932Z,99.90
2018-05-18T02:08:44.512Z,99.90
2018-05-18T02:11:15.765Z,99.90
2018-05-18T02:13:45.484Z,99.90
2018-05-18T02:16:15.098Z,99.90
2018-05-18T02:18:44.880Z,99.90
2018-05-18T02:21:14.554Z,99.90
2018-05-18T02:23:45.127Z,99.90
2018-05-18T02:26:14.703Z,99.90
2018-05-18T02:28:45.138Z,99.90
2018-05-18T02:31:14.990Z,99.90
2018-05-18T02:33:44.561Z,99.90
2018-05-18T02:36:14.375Z,99.90
2018-05-18T02:38:45.222Z,99.90
2018-05-18T02:41:14.868Z,99.90
2018-05-18T02:43:44.423Z,99.90
2018-05-18T02:46:14.190Z,99.90
2018-05-18T02:48:45.297Z,99.90
2018-05-18T02:51:14.859Z,99.90
2018-05-18T02:53:45.211Z,99.90
2018-05-18T02:56:14.856Z,99.90
2018-05-18T02:58:44.387Z,99.90
2018-05-18T03:01:14.193Z,99.90
2018-05-18T03:03:43.697Z,99.90
2018-05-18T03:06:13.266Z,99.90
2018-05-18T03:08:42.898Z,99.90
2018-05-18T03:11:12.427Z,99.90
2018-05-18T03:13:42.028Z,99.90
2018-05-18T03:16:11.622Z,99.90
2018-05-18T03:18:42.052Z,99.90
2018-05-18T03:21:11.611Z,99.90
2018-05-18T03:23:42.098Z,99.90
2018-05-18T03:26:11.700Z,99.90
2018-05-18T03:28:42.029Z,99.90
2018-05-18T03:31:11.832Z,99.90
2018-05-18T03:33:41.312Z,99.90
2018-05-18T03:36:11.080Z,99.90
2018-05-18T03:38:41.418Z,99.90
2018-05-18T03:41:11.912Z,99.90
2018-05-18T03:43:41.839Z,99.90
2018-05-18T03:46:12.495Z,99.90
2018-05-18T03:48:49.087Z,99.90
2018-05-18T03:54:42.200Z,99.90
2018-05-18T03:57:11.880Z,99.90
2018-05-18T03:59:41.417Z,99.90
2018-05-18T04:02:28.775Z,99.90
2018-05-18T04:05:16.107Z,99.90
2018-05-18T04:08:03.318Z,99.90
2018-05-18T04:10:32.862Z,99.90
2018-05-18T04:13:03.629Z,99.90
2018-05-18T04:15:33.311Z,99.90
2018-05-18T04:18:03.600Z,99.90
2018-05-18T04:20:33.110Z,99.90
2018-05-18T04:23:04.389Z,99.90
2018-05-18T04:25:34.089Z,99.90
2018-05-18T04:28:04.557Z,99.90
2018-05-18T04:30:34.214Z,99.90
2018-05-18T04:33:04.580Z,99.90
2018-05-18T04:35:34.309Z,99.90
2018-05-18T04:38:03.922Z,99.90
2018-05-18T04:40:34.050Z,99.90
2018-05-18T04:43:04.083Z,99.90
2018-05-18T04:45:35.636Z,99.90
2018-05-18T04:48:05.816Z,99.90
2018-05-18T04:50:35.643Z,99.90
2018-05-18T04:53:05.284Z,99.90
2018-05-18T04:55:35.761Z,99.90
2018-05-18T04:58:05.349Z,99.90
2018-05-18T05:00:34.891Z,99.90
2018-05-18T05:03:04.480Z,99.90
2018-05-18T05:05:34.495Z,99.90
2018-05-18T05:08:04.071Z,99.90
2018-05-18T05:10:33.724Z,99.90
2018-05-18T05:13:03.769Z,99.90
2018-05-18T05:15:33.306Z,99.90
2018-05-18T05:18:03.723Z,99.90
2018-05-18T05:20:33.426Z,99.90
2018-05-18T05:23:03.451Z,99.90
2018-05-18T05:25:33.904Z,99.90
2018-05-18T05:28:03.847Z,99.90
2018-05-18T05:30:33.615Z,99.90
2018-05-18T05:33:03.806Z,99.90
2018-05-18T05:35:35.091Z,99.90
2018-05-18T05:38:06.132Z,99.90
2018-05-18T05:40:35.875Z,99.00
2018-05-18T05:43:05.854Z,98.00
2018-05-18T05:45:35.675Z,95.50
2018-05-18T05:48:06.126Z,92.30
2018-05-18T05:50:37.461Z,92.70
2018-05-18T05:53:08.900Z,86.70
2018-05-18T05:55:41.778Z,88.10
2018-05-18T05:58:12.267Z,87.90
2018-05-18T06:00:42.099Z,90.70
2018-05-18T06:03:14.137Z,83.60
2018-05-18T06:05:44.159Z,82.40
2018-05-18T06:08:14.629Z,86.40
2018-05-18T06:10:44.366Z,86.30
2018-05-18T06:13:18.557Z,90.00
2018-05-18T06:15:49.258Z,90.00
2018-05-18T06:18:21.191Z,86.90
2018-05-18T06:20:51.145Z,83.80
2018-05-18T06:23:20.746Z,80.40
2018-05-18T06:25:50.633Z,79.10
2018-05-18T06:28:20.214Z,78.00
2018-05-18T06:30:51.684Z,76.70
2018-05-18T06:33:21.646Z,85.60
2018-05-18T06:35:51.168Z,82.00
2018-05-18T06:38:21.728Z,79.80
2018-05-18T06:40:52.126Z,80.40
2018-05-18T06:43:21.941Z,80.60
2018-05-18T06:45:53.630Z,83.20
2018-05-18T06:48:25.232Z,84.90
2018-05-18T06:50:55.051Z,84.90
2018-05-18T06:53:24.746Z,85.90
2018-05-18T06:55:54.303Z,80.40
2018-05-18T06:58:24.694Z,75.70
2018-05-18T07:00:54.219Z,75.70
2018-05-18T07:03:23.714Z,74.40
2018-05-18T07:05:53.568Z,69.10
2018-05-18T07:08:23.117Z,63.60
2018-05-18T07:10:52.836Z,63.80
2018-05-18T07:13:22.544Z,58.70
2018-05-18T07:15:52.342Z,57.90
2018-05-18T07:18:22.879Z,57.00
2018-05-18T07:20:52.899Z,55.80
2018-05-18T07:23:22.579Z,54.50
2018-05-18T07:25:52.305Z,53.40
2018-05-18T07:28:21.934Z,52.10
2018-05-18T07:30:51.600Z,52.40
2018-05-18T07:33:21.122Z,52.90
2018-05-18T07:35:50.833Z,51.00
2018-05-18T07:38:20.569Z,51.40
2018-05-18T07:40:50.301Z,47.00
2018-05-18T07:43:20.654Z,54.70
2018-05-18T07:45:51.541Z,57.10
2018-05-18T07:48:21.055Z,57.10
2018-05-18T07:50:50.686Z,54.00
2018-05-18T07:53:20.268Z,51.70
2018-05-18T07:55:49.980Z,47.00
2018-05-18T07:58:19.692Z,46.50
2018-05-18T08:00:50.646Z,45.50
2018-05-18T08:03:20.407Z,45.60
2018-05-18T08:05:50.277Z,46.00
2018-05-18T08:08:21.189Z,51.30
2018-05-18T08:10:50.700Z,52.40
2018-05-18T08:13:20.395Z,54.00
2018-05-18T08:15:50.211Z,54.60
2018-05-18T08:18:19.968Z,49.20
2018-05-18T08:20:50.004Z,46.20
2018-05-18T08:23:20.331Z,44.50
2018-05-18T08:25:50.076Z,44.50
2018-05-18T08:28:20.397Z,42.40
2018-05-18T08:31:14.611Z,42.30
2018-05-18T08:33:44.110Z,41.30
2018-05-18T08:36:13.665Z,39.80
2018-05-18T08:38:43.984Z,37.70
2018-05-18T08:41:15.389Z,37.40
2018-05-18T08:43:45.248Z,37.40
2018-05-18T08:46:16.265Z,36.80
2018-05-18T08:48:45.941Z,36.40
2018-05-18T08:51:15.728Z,36.40
2018-05-18T08:53:45.476Z,37.40
2018-05-18T08:56:15.114Z,44.70
2018-05-18T08:58:44.669Z,48.30
2018-05-18T09:01:14.620Z,46.90
2018-05-18T09:03:44.314Z,47.70
2018-05-18T09:06:13.955Z,46.90
2018-05-18T09:08:45.437Z,41.00
2018-05-18T09:11:15.747Z,40.90
2018-05-18T09:13:45.731Z,36.50
2018-05-18T09:16:15.538Z,34.80
2018-05-18T09:18:45.033Z,35.00
2018-05-18T09:21:14.667Z,38.40
2018-05-18T09:23:44.184Z,39.70
2018-05-18T09:26:13.693Z,36.50
2018-05-18T09:28:43.372Z,36.70
2018-05-18T09:31:12.830Z,35.50
2018-05-18T09:33:42.297Z,35.60
2018-05-18T09:36:11.995Z,36.20
2018-05-18T09:38:41.891Z,34.00
2018-05-18T09:41:11.908Z,35.40
2018-05-18T09:43:42.620Z,39.00
2018-05-18T09:46:12.868Z,38.80
2018-05-18T09:48:42.596Z,38.80
2018-05-18T09:51:12.087Z,36.80
2018-05-18T09:53:42.126Z,35.80
2018-05-18T09:56:11.726Z,36.50
2018-05-18T09:58:41.550Z,37.60
2018-05-18T10:01:12.287Z,35.40
2018-05-18T10:03:42.101Z,37.00
2018-05-18T10:06:12.769Z,32.50
2018-05-18T10:08:42.432Z,33.10
2018-05-18T10:11:12.006Z,31.40
2018-05-18T10:13:42.233Z,32.40
2018-05-18T10:16:13.375Z,32.60
2018-05-18T10:18:43.025Z,32.70
2018-05-18T10:21:12.931Z,30.60
2018-05-18T10:23:42.426Z,31.90
2018-05-18T10:29:15.099Z,35.30
2018-05-18T10:31:45.120Z,35.20
2018-05-18T10:34:14.697Z,31.70
2018-05-18T10:36:44.291Z,32.20
2018-05-18T10:39:15.593Z,30.10
2018-05-18T10:42:06.673Z,30.00
2018-05-18T10:44:36.339Z,32.00
2018-05-18T10:47:06.197Z,36.50
2018-05-18T10:49:35.928Z,39.20
2018-05-18T10:52:06.499Z,35.00
2018-05-18T10:54:36.993Z,32.40
2018-05-18T10:57:06.685Z,32.40
2018-05-18T10:59:37.086Z,29.80
2018-05-18T11:02:06.821Z,29.80
2018-05-18T11:04:37.119Z,31.60
2018-05-18T11:07:06.765Z,31.60
2018-05-18T11:09:36.524Z,30.00
2018-05-18T11:12:06.016Z,29.60
2018-05-18T11:14:35.631Z,32.10
2018-05-18T11:17:05.252Z,32.30
2018-05-18T11:19:34.979Z,34.90
2018-05-18T11:22:05.491Z,40.00
2018-05-18T11:24:35.135Z,40.00
2018-05-18T11:27:04.658Z,40.30
2018-05-18T11:29:35.102Z,35.10
2018-05-18T11:32:05.786Z,35.00
2018-05-18T11:34:35.479Z,33.00
2018-05-18T11:37:05.079Z,33.40
2018-05-18T11:39:34.615Z,31.90
2018-05-18T11:42:04.207Z,32.30
2018-05-18T11:44:34.618Z,33.90
2018-05-18T11:47:04.454Z,33.80
2018-05-18T11:49:34.176Z,31.70
2018-05-18T11:52:05.370Z,32.60
2018-05-18T11:54:34.996Z,33.40
2018-05-18T11:57:04.646Z,31.90
2018-05-18T11:59:36.040Z,32.70
2018-05-18T12:02:07.483Z,32.60
2018-05-18T12:04:37.148Z,31.10
2018-05-18T12:07:07.862Z,29.70
2018-05-18T12:09:37.472Z,29.70
2018-05-18T12:12:08.944Z,29.80
2018-05-18T12:14:38.483Z,31.40
2018-05-18T12:17:08.741Z,34.70
2018-05-18T12:19:39.178Z,34.70
2018-05-18T12:22:24.795Z,34.00
2018-05-18T12:24:54.574Z,32.90
2018-05-18T12:27:25.053Z,35.20
2018-05-18T12:29:56.071Z,37.10
2018-05-18T12:32:27.233Z,38.80
2018-05-18T12:34:57.569Z,42.90
2018-05-18T12:37:27.935Z,42.80
2018-05-18T12:39:57.530Z,44.50
2018-05-18T12:42:28.231Z,46.70
2018-05-18T12:44:57.771Z,44.90
2018-05-18T12:47:27.565Z,40.80
2018-05-18T12:49:57.301Z,39.20
2018-05-18T12:52:28.655Z,34.80
2018-05-18T13:04:14.251Z,40.20
2018-05-18T13:06:45.339Z,40.00
2018-05-18T13:09:20.166Z,40.80
2018-05-18T13:11:52.119Z,42.00
2018-05-18T13:14:21.835Z,41.70
2018-05-18T13:16:51.355Z,41.90
2018-05-18T13:19:20.987Z,44.30
2018-05-18T13:21:50.556Z,45.10
2018-05-18T13:24:20.012Z,46.30
2018-05-18T13:26:49.483Z,46.70
2018-05-18T13:29:19.169Z,47.20
2018-05-18T13:31:48.661Z,44.60
2018-05-18T13:34:29.118Z,45.60
2018-05-18T13:36:59.087Z,43.30
2018-05-18T13:39:29.075Z,42.80
2018-05-18T13:41:58.616Z,42.50
2018-05-18T13:44:28.605Z,43.80
2018-05-18T13:46:59.031Z,44.60
2018-05-18T13:49:28.877Z,45.70
2018-05-18T13:51:58.682Z,45.60
2018-05-18T13:54:28.204Z,46.00
2018-05-18T13:56:57.903Z,45.20
2018-05-18T13:59:27.380Z,45.00
2018-05-18T14:01:56.912Z,45.10
2018-05-18T14:04:26.517Z,45.50
2018-05-18T14:06:56.429Z,43.50
2018-05-18T14:09:26.067Z,42.90
2018-05-18T14:11:56.443Z,44.20
2018-05-18T14:14:26.736Z,42.70
2018-05-18T14:16:58.085Z,43.30
2018-05-18T14:19:27.947Z,43.20
2018-05-18T14:21:57.557Z,44.50
2018-05-18T14:24:27.603Z,43.60
2018-05-18T14:26:57.402Z,44.60
2018-05-18T14:29:26.929Z,45.80
2018-05-18T14:31:57.519Z,44.90
2018-05-18T14:34:27.221Z,45.90
2018-05-18T14:36:57.919Z,45.30
2018-05-18T14:39:28.545Z,48.50
2018-05-18T14:41:58.731Z,50.50
2018-05-18T14:44:33.047Z,51.20
2018-05-18T14:47:03.493Z,49.90
2018-05-18T14:49:33.549Z,51.80
2018-05-18T14:52:03.817Z,52.00
2018-05-18T14:54:33.519Z,52.30
2018-05-18T14:57:03.446Z,52.70
2018-05-18T14:59:33.039Z,50.50
2018-05-18T15:02:03.032Z,52.30
2018-05-18T15:04:32.553Z,52.90
2018-05-18T15:07:02.315Z,53.80
2018-05-18T15:09:32.209Z,53.10
2018-05-18T15:12:02.309Z,54.10
2018-05-18T15:14:31.984Z,50.90
2018-05-18T15:17:02.959Z,48.20
2018-05-18T15:19:34.232Z,48.80
2018-05-18T15:22:03.955Z,48.00
2018-05-18T15:24:33.708Z,49.50
2018-05-18T15:27:03.982Z,49.80
2018-05-18T15:29:33.664Z,51.80
2018-05-18T15:32:03.837Z,50.80
2018-05-18T15:34:33.400Z,50.70
2018-05-18T15:37:03.268Z,50.90
2018-05-18T15:39:33.751Z,49.30
2018-05-18T15:42:04.296Z,49.30
2018-05-18T15:44:38.100Z,50.10
2018-05-18T15:47:07.857Z,49.70
2018-05-18T15:49:39.355Z,51.20
2018-05-18T15:52:09.218Z,51.10
2018-05-18T15:54:40.005Z,53.70
2018-05-18T15:57:09.684Z,53.50
2018-05-18T15:59:39.307Z,54.90
2018-05-18T16:02:08.885Z,54.60
2018-05-18T16:04:39.355Z,54.10
2018-05-18T16:07:09.442Z,54.10
2018-05-18T16:09:39.929Z,51.40
2018-05-18T16:12:09.715Z,52.00
2018-05-18T16:14:39.728Z,53.10
2018-05-18T16:17:10.611Z,53.20
2018-05-18T16:19:40.460Z,52.10
2018-05-18T16:22:10.329Z,52.10
2018-05-18T16:24:40.113Z,52.00
2018-05-18T16:27:12.660Z,53.50
2018-05-18T16:29:43.225Z,53.40
2018-05-18T16:32:12.983Z,53.30
2018-05-18T16:34:43.527Z,53.40
2018-05-18T16:37:13.179Z,53.40
2018-05-18T16:39:43.166Z,53.90
2018-05-18T16:42:12.803Z,53.40
2018-05-18T16:44:42.607Z,53.20
2018-05-18T16:47:12.944Z,53.90
2018-05-18T16:49:42.447Z,53.40
2018-05-18T16:52:11.915Z,54.20
2018-05-18T16:54:42.163Z,54.30
2018-05-18T16:57:11.627Z,54.10
2018-05-18T16:59:42.015Z,55.20
2018-05-18T17:02:16.998Z,55.10
2018-05-18T17:04:47.404Z,54.90
2018-05-18T17:07:17.528Z,54.70
2018-05-18T17:09:47.251Z,55.00
2018-05-18T17:12:17.534Z,55.80
2018-05-18T17:14:47.934Z,55.70
2018-05-18T17:17:17.359Z,56.00
2018-05-18T17:19:48.093Z,55.80
2018-05-18T17:22:17.564Z,55.40
2018-05-18T17:24:47.843Z,56.20
2018-05-18T17:27:17.415Z,56.10
2018-05-18T17:29:47.849Z,56.70
2018-05-18T17:32:17.469Z,57.00
2018-05-18T17:34:46.913Z,58.00
2018-05-18T17:37:16.677Z,58.60
2018-05-18T17:39:46.189Z,58.40
2018-05-18T17:42:16.048Z,59.00
2018-05-18T17:44:45.559Z,59.00
2018-05-18T17:47:15.225Z,58.70
2018-05-18T17:49:44.943Z,58.80
2018-05-18T17:52:14.521Z,58.40
2018-05-18T17:54:44.125Z,58.30
2018-05-18T17:57:13.639Z,58.70
2018-05-18T17:59:44.687Z,58.70
2018-05-18T18:02:14.300Z,58.90
2018-05-18T18:04:44.070Z,59.30
2018-05-18T18:07:13.711Z,59.40
2018-05-18T18:09:43.321Z,60.00
2018-05-18T18:12:13.939Z,59.30
2018-05-18T18:14:44.819Z,59.40
2018-05-18T18:17:14.398Z,59.20
2018-05-18T18:19:46.906Z,58.70
2018-05-18T18:22:16.502Z,58.70
2018-05-18T18:24:46.299Z,60.10
2018-05-18T18:27:15.907Z,60.60
2018-05-18T18:29:46.239Z,58.90
2018-05-18T18:32:15.923Z,60.30
2018-05-18T18:34:45.591Z,60.30
2018-05-18T18:37:15.641Z,60.10
2018-05-18T18:39:46.081Z,61.60
2018-05-18T18:42:15.947Z,61.60
2018-05-18T18:44:45.509Z,61.60
2018-05-18T18:47:15.136Z,61.80
2018-05-18T18:49:44.775Z,62.30
2018-05-18T18:52:16.248Z,62.20
2018-05-18T18:54:45.940Z,62.20
2018-05-18T18:57:15.493Z,62.90
2018-05-18T18:59:44.983Z,61.60
2018-05-18T19:02:14.723Z,61.20
2018-05-18T19:04:44.420Z,61.60
2018-05-18T19:07:15.579Z,61.90
2018-05-18T19:09:45.404Z,62.60
2018-05-18T19:12:20.948Z,63.50
2018-05-18T19:14:50.742Z,64.20
2018-05-18T19:17:20.715Z,64.90
2018-05-18T19:19:50.338Z,66.10
2018-05-18T19:22:21.988Z,66.30
2018-05-18T19:24:52.313Z,66.30
2018-05-18T19:27:24.683Z,65.60
2018-05-18T19:29:54.480Z,65.50
2018-05-18T19:32:24.505Z,66.10
2018-05-18T19:34:54.371Z,66.40
2018-05-18T19:37:25.803Z,66.70
2018-05-18T19:39:55.953Z,66.70
2018-05-18T19:42:26.069Z,67.20
2018-05-18T19:44:55.802Z,68.50
2018-05-18T19:47:25.796Z,69.20
2018-05-18T19:49:55.973Z,70.10
2018-05-18T19:52:25.840Z,70.80
2018-05-18T19:54:55.416Z,71.10
2018-05-18T19:57:25.826Z,71.90
2018-05-18T19:59:56.136Z,71.80
2018-05-18T20:02:26.322Z,72.60
2018-05-18T20:04:56.859Z,72.80
2018-05-18T20:07:27.001Z,72.20
2018-05-18T20:09:56.993Z,71.70
2018-05-18T20:16:45.581Z,72.40
2018-05-18T20:19:20.364Z,72.30
2018-05-18T20:21:49.993Z,72.50
2018-05-18T20:24:19.771Z,73.00
2018-05-18T20:26:50.334Z,73.80
2018-05-18T20:29:21.178Z,75.10
2018-05-18T20:31:50.796Z,75.10
2018-05-18T20:34:20.633Z,76.10
2018-05-18T20:36:50.335Z,76.50
2018-05-18T20:39:20.460Z,77.40
2018-05-18T20:45:01.504Z,77.80
2018-05-18T20:47:57.068Z,77.80
2018-05-18T20:50:26.866Z,78.00
2018-05-18T20:52:56.799Z,78.40
2018-05-18T20:55:27.946Z,80.20
2018-05-18T20:57:59.915Z,80.40
2018-05-18T21:00:31.235Z,80.80
2018-05-18T21:03:01.568Z,81.60
2018-05-18T21:05:31.788Z,81.00
2018-05-18T21:08:02.367Z,81.00
2018-05-18T21:13:51.750Z,79.10
2018-05-18T21:16:23.351Z,79.10
2018-05-18T21:18:53.278Z,79.60
2018-05-18T21:21:22.986Z,80.00
2018-05-18T21:23:53.021Z,80.50
2018-05-18T21:26:24.375Z,80.70
2018-05-18T21:28:54.145Z,80.90
2018-05-18T21:31:24.574Z,81.70
2018-05-18T21:33:54.919Z,81.60
2018-05-18T21:36:25.070Z,81.80
2018-05-18T21:38:55.672Z,82.00
2018-05-18T21:41:25.484Z,82.60
2018-05-18T21:43:58.629Z,82.60
2018-05-18T21:46:29.303Z,84.30
2018-05-18T21:48:59.336Z,83.90
2018-05-18T21:51:29.702Z,84.20
2018-05-18T21:53:59.546Z,84.90
2018-05-18T21:56:30.251Z,85.60
2018-05-18T21:58:59.951Z,86.30
2018-05-18T22:01:41.383Z,86.90
2018-05-18T22:04:15.710Z,88.20
2018-05-18T22:06:45.690Z,88.80
2018-05-18T22:09:17.251Z,90.20
2018-05-18T22:11:46.993Z,90.10
2018-05-18T22:14:16.862Z,90.70
2018-05-18T22:16:47.652Z,91.80
2018-05-18T22:19:17.471Z,91.80
2018-05-18T22:21:47.238Z,92.20
2018-05-18T22:24:17.377Z,92.30
2018-05-18T22:26:47.098Z,93.00
2018-05-18T22:29:18.197Z,93.30
2018-05-18T22:31:47.925Z,93.10
2018-05-18T22:34:17.879Z,93.30
2018-05-18T22:36:47.661Z,93.00
2018-05-18T22:39:17.555Z,93.00
2018-05-18T22:45:04.289Z,93.10
2018-05-18T22:47:35.446Z,92.90
2018-05-18T22:50:06.595Z,93.40
2018-05-18T22:53:24.746Z,94.40
2018-05-18T22:55:57.447Z,94.30
2018-05-18T22:58:27.268Z,94.70
2018-05-18T23:01:04.590Z,95.20
2018-05-18T23:03:35.301Z,95.00
2018-05-18T23:06:06.193Z,95.20
2018-05-18T23:08:36.975Z,95.50
2018-05-18T23:11:06.687Z,95.50
2018-05-18T23:17:10.861Z,96.40
2018-05-18T23:19:40.946Z,96.30
2018-05-18T23:22:13.609Z,95.80
2018-05-18T23:25:02.046Z,95.90
2018-05-18T23:27:32.271Z,95.80
2018-05-18T23:30:02.615Z,95.60
2018-05-18T23:32:32.289Z,95.90
2018-05-18T23:35:02.153Z,96.30
2018-05-18T23:37:32.026Z,96.10
2018-05-18T23:40:09.299Z,95.90
2018-05-18T23:42:39.493Z,96.00
2018-05-18T23:45:09.120Z,96.20
2018-05-18T23:47:38.671Z,96.40
2018-05-18T23:50:08.398Z,96.90
2018-05-18T23:52:38.401Z,96.60
2018-05-18T23:55:19.155Z,96.60
2018-05-18T23:57:49.148Z,96.70
